sensor_id;sensor_type;location;lat;lon;timestamp;temperature;humidity
26691;DHT22;14307;51.718;8.938;2023-02-22T00:00:20;7.60;99.90
26691;DHT22;14307;51.718;8.938;2023-02-22T00:03:02;7.60;99.90
26691;DHT22;14307;51.718;8.938;2023-02-22T00:05:29;7.60;99.90
26691;DHT22;14307;51.718;8.938;2023-02-22T00:07:57;7.60;99.90
26691;DHT22;14307;51.718;8.938;2023-02-22T00:10:24;7.60;99.90
26691;DHT22;14307;51.718;8.938;2023-02-22T00:12:51;7.60;99.90
26691;DHT22;14307;51.718;8.938;2023-02-22T00:15:22;7.60;99.90
26691;DHT22;14307;51.718;8.938;2023-02-22T00:17:53;7.60;99.90
26691;DHT22;14307;51.718;8.938;2023-02-22T00:20:20;7.60;99.90
26691;DHT22;14307;51.718;8.938;2023-02-22T00:22:49;7.60;99.90
26691;DHT22;14307;51.718;8.938;2023-02-22T00:25:21;7.50;99.90
26691;DHT22;14307;51.718;8.938;2023-02-22T00:27:49;7.50;99.90
26691;DHT22;14307;51.718;8.938;2023-02-22T00:30:23;7.50;99.90
26691;DHT22;14307;51.718;8.938;2023-02-22T00:32:53;7.40;99.90
26691;DHT22;14307;51.718;8.938;2023-02-22T00:35:27;7.40;99.90
26691;DHT22;14307;51.718;8.938;2023-02-22T00:37:56;7.40;99.90
26691;DHT22;14307;51.718;8.938;2023-02-22T00:40:26;7.40;99.90
26691;DHT22;14307;51.718;8.938;2023-02-22T00:42:53;7.40;99.90
26691;DHT22;14307;51.718;8.938;2023-02-22T00:45:22;7.40;99.90
26691;DHT22;14307;51.718;8.938;2023-02-22T00:47:50;7.40;99.90
26691;DHT22;14307;51.718;8.938;2023-02-22T00:50:18;7.40;99.90
26691;DHT22;14307;51.718;8.938;2023-02-22T00:52:45;7.40;99.90
26691;DHT22;14307;51.718;8.938;2023-02-22T00:55:21;7.40;99.90
26691;DHT22;14307;51.718;8.938;2023-02-22T00:57:48;7.40;99.90
26691;DHT22;14307;51.718;8.938;2023-02-22T01:00:19;7.40;99.90
26691;DHT22;14307;51.718;8.938;2023-02-22T01:02:46;7.40;99.90
26691;DHT22;14307;51.718;8.938;2023-02-22T01:05:19;7.40;99.90
26691;DHT22;14307;51.718;8.938;2023-02-22T01:07:48;7.40;99.90
26691;DHT22;14307;51.718;8.938;2023-02-22T01:10:18;7.40;99.90
26691;DHT22;14307;51.718;8.938;2023-02-22T01:12:46;7.40;99.90
26691;DHT22;14307;51.718;8.938;2023-02-22T01:15:13;7.40;99.90
26691;DHT22;14307;51.718;8.938;2023-02-22T01:17:40;7.40;99.90
26691;DHT22;14307;51.718;8.938;2023-02-22T01:20:10;7.40;99.90
26691;DHT22;14307;51.718;8.938;2023-02-22T01:22:50;7.40;99.90
26691;DHT22;14307;51.718;8.938;2023-02-22T01:25:21;7.40;99.90
26691;DHT22;14307;51.718;8.938;2023-02-22T01:27:49;7.50;99.90
26691;DHT22;14307;51.718;8.938;2023-02-22T01:30:20;7.60;99.90
26691;DHT22;14307;51.718;8.938;2023-02-22T01:32:50;7.60;99.90
26691;DHT22;14307;51.718;8.938;2023-02-22T01:35:19;7.60;99.90
26691;DHT22;14307;51.718;8.938;2023-02-22T01:37:45;7.70;99.90
26691;DHT22;14307;51.718;8.938;2023-02-22T01:42:55;7.70;99.90
26691;DHT22;14307;51.718;8.938;2023-02-22T01:48:11;7.80;99.90
26691;DHT22;14307;51.718;8.938;2023-02-22T01:50:43;7.70;99.90
26691;DHT22;14307;51.718;8.938;2023-02-22T01:53:14;7.80;99.90
26691;DHT22;14307;51.718;8.938;2023-02-22T01:55:42;7.80;99.90
26691;DHT22;14307;51.718;8.938;2023-02-22T01:58:10;7.80;99.90
26691;DHT22;14307;51.718;8.938;2023-02-22T02:00:37;7.80;99.90
26691;DHT22;14307;51.718;8.938;2023-02-22T02:03:13;7.80;99.90
26691;DHT22;14307;51.718;8.938;2023-02-22T02:05:43;7.80;99.90
26691;DHT22;14307;51.718;8.938;2023-02-22T02:10:58;7.80;99.90
26691;DHT22;14307;51.718;8.938;2023-02-22T02:13:27;7.80;99.90
26691;DHT22;14307;51.718;8.938;2023-02-22T02:15:54;7.80;99.90
26691;DHT22;14307;51.718;8.938;2023-02-22T02:18:22;7.80;99.90
26691;DHT22;14307;51.718;8.938;2023-02-22T02:21:01;7.80;99.90
26691;DHT22;14307;51.718;8.938;2023-02-22T02:34:52;7.90;99.90
26691;DHT22;14307;51.718;8.938;2023-02-22T02:37:35;7.90;99.90
26691;DHT22;14307;51.718;8.938;2023-02-22T02:40:21;7.90;99.90
26691;DHT22;14307;51.718;8.938;2023-02-22T02:45:34;8.00;99.90
26691;DHT22;14307;51.718;8.938;2023-02-22T02:48:05;7.90;99.90
26691;DHT22;14307;51.718;8.938;2023-02-22T02:50:46;7.90;99.90
26691;DHT22;14307;51.718;8.938;2023-02-22T02:53:18;7.90;99.90
26691;DHT22;14307;51.718;8.938;2023-02-22T02:55:46;7.80;99.90
26691;DHT22;14307;51.718;8.938;2023-02-22T02:58:19;7.80;99.90
26691;DHT22;14307;51.718;8.938;2023-02-22T03:00:46;7.90;99.90
26691;DHT22;14307;51.718;8.938;2023-02-22T03:11:22;7.80;99.90
26691;DHT22;14307;51.718;8.938;2023-02-22T03:14:36;7.90;99.90
26691;DHT22;14307;51.718;8.938;2023-02-22T03:17:17;7.90;99.90
26691;DHT22;14307;51.718;8.938;2023-02-22T03:19:56;7.90;99.90
26691;DHT22;14307;51.718;8.938;2023-02-22T03:22:29;7.90;99.90
26691;DHT22;14307;51.718;8.938;2023-02-22T03:25:01;7.90;99.90
26691;DHT22;14307;51.718;8.938;2023-02-22T03:30:19;7.90;99.90
26691;DHT22;14307;51.718;8.938;2023-02-22T03:32:53;8.00;99.90
26691;DHT22;14307;51.718;8.938;2023-02-22T03:35:30;7.90;99.90
26691;DHT22;14307;51.718;8.938;2023-02-22T03:38:01;7.90;99.90
26691;DHT22;14307;51.718;8.938;2023-02-22T03:40:34;7.90;99.90
26691;DHT22;14307;51.718;8.938;2023-02-22T03:43:14;7.90;99.90
26691;DHT22;14307;51.718;8.938;2023-02-22T03:45:46;7.90;99.90
26691;DHT22;14307;51.718;8.938;2023-02-22T03:50:49;7.90;99.90
26691;DHT22;14307;51.718;8.938;2023-02-22T03:53:18;7.90;99.90
26691;DHT22;14307;51.718;8.938;2023-02-22T03:55:48;7.90;99.90
26691;DHT22;14307;51.718;8.938;2023-02-22T03:58:20;7.90;99.90
26691;DHT22;14307;51.718;8.938;2023-02-22T04:00:48;7.90;99.90
26691;DHT22;14307;51.718;8.938;2023-02-22T04:03:22;7.90;99.90
26691;DHT22;14307;51.718;8.938;2023-02-22T04:05:50;7.90;99.90
26691;DHT22;14307;51.718;8.938;2023-02-22T04:08:18;7.90;99.90
26691;DHT22;14307;51.718;8.938;2023-02-22T04:10:45;7.90;99.90
26691;DHT22;14307;51.718;8.938;2023-02-22T04:13:13;7.90;99.90
26691;DHT22;14307;51.718;8.938;2023-02-22T04:15:43;7.90;99.90
26691;DHT22;14307;51.718;8.938;2023-02-22T04:18:11;7.90;99.90
26691;DHT22;14307;51.718;8.938;2023-02-22T04:20:38;7.90;99.90
26691;DHT22;14307;51.718;8.938;2023-02-22T04:23:10;7.90;99.90
26691;DHT22;14307;51.718;8.938;2023-02-22T04:25:39;7.80;99.90
26691;DHT22;14307;51.718;8.938;2023-02-22T04:28:15;7.80;99.90
26691;DHT22;14307;51.718;8.938;2023-02-22T04:31:00;7.80;99.90
26691;DHT22;14307;51.718;8.938;2023-02-22T04:33:28;7.80;99.90
26691;DHT22;14307;51.718;8.938;2023-02-22T04:35:55;7.80;99.90
26691;DHT22;14307;51.718;8.938;2023-02-22T04:38:23;7.70;99.90
26691;DHT22;14307;51.718;8.938;2023-02-22T04:40:53;7.70;99.90
26691;DHT22;14307;51.718;8.938;2023-02-22T04:43:21;7.70;99.90
26691;DHT22;14307;51.718;8.938;2023-02-22T04:46:02;7.70;99.90
26691;DHT22;14307;51.718;8.938;2023-02-22T04:48:30;7.70;99.90
26691;DHT22;14307;51.718;8.938;2023-02-22T04:50:56;7.70;99.90
26691;DHT22;14307;51.718;8.938;2023-02-22T04:53:24;7.70;99.90
26691;DHT22;14307;51.718;8.938;2023-02-22T04:55:54;7.70;99.90
26691;DHT22;14307;51.718;8.938;2023-02-22T04:58:22;7.70;99.90
26691;DHT22;14307;51.718;8.938;2023-02-22T05:00:48;7.80;99.90
26691;DHT22;14307;51.718;8.938;2023-02-22T05:03:15;7.70;99.90
26691;DHT22;14307;51.718;8.938;2023-02-22T05:05:42;7.70;99.90
26691;DHT22;14307;51.718;8.938;2023-02-22T05:08:08;7.60;99.90
26691;DHT22;14307;51.718;8.938;2023-02-22T05:10:35;7.60;99.90
26691;DHT22;14307;51.718;8.938;2023-02-22T05:13:02;7.60;99.90
26691;DHT22;14307;51.718;8.938;2023-02-22T05:15:29;7.60;99.90
26691;DHT22;14307;51.718;8.938;2023-02-22T05:17:56;7.60;99.90
26691;DHT22;14307;51.718;8.938;2023-02-22T05:20:26;7.50;99.90
26691;DHT22;14307;51.718;8.938;2023-02-22T05:22:58;7.60;99.90
26691;DHT22;14307;51.718;8.938;2023-02-22T05:25:26;7.50;99.90
26691;DHT22;14307;51.718;8.938;2023-02-22T05:27:55;7.50;99.90
26691;DHT22;14307;51.718;8.938;2023-02-22T05:30:25;7.50;99.90
26691;DHT22;14307;51.718;8.938;2023-02-22T05:32:55;7.50;99.90
26691;DHT22;14307;51.718;8.938;2023-02-22T05:35:22;7.50;99.90
26691;DHT22;14307;51.718;8.938;2023-02-22T05:37:49;7.50;99.90
26691;DHT22;14307;51.718;8.938;2023-02-22T05:40:22;7.50;99.90
26691;DHT22;14307;51.718;8.938;2023-02-22T05:42:52;7.50;99.90
26691;DHT22;14307;51.718;8.938;2023-02-22T05:45:21;7.50;99.90
26691;DHT22;14307;51.718;8.938;2023-02-22T05:47:48;7.50;99.90
26691;DHT22;14307;51.718;8.938;2023-02-22T05:50:15;7.40;99.90
26691;DHT22;14307;51.718;8.938;2023-02-22T05:52:42;7.40;99.90
26691;DHT22;14307;51.718;8.938;2023-02-22T05:55:12;7.40;99.90
26691;DHT22;14307;51.718;8.938;2023-02-22T05:57:39;7.40;99.90
26691;DHT22;14307;51.718;8.938;2023-02-22T06:00:06;7.40;99.90
26691;DHT22;14307;51.718;8.938;2023-02-22T06:02:39;7.40;99.90
26691;DHT22;14307;51.718;8.938;2023-02-22T06:05:06;7.30;99.90
26691;DHT22;14307;51.718;8.938;2023-02-22T06:07:33;7.30;99.90
26691;DHT22;14307;51.718;8.938;2023-02-22T06:10:00;7.30;99.90
26691;DHT22;14307;51.718;8.938;2023-02-22T06:12:27;7.30;99.90
26691;DHT22;14307;51.718;8.938;2023-02-22T06:14:53;7.20;99.90
26691;DHT22;14307;51.718;8.938;2023-02-22T06:17:20;7.30;99.90
26691;DHT22;14307;51.718;8.938;2023-02-22T06:19:46;7.20;99.90
26691;DHT22;14307;51.718;8.938;2023-02-22T06:22:17;7.20;99.90
26691;DHT22;14307;51.718;8.938;2023-02-22T06:24:44;7.30;99.90
26691;DHT22;14307;51.718;8.938;2023-02-22T06:27:11;7.20;99.90
26691;DHT22;14307;51.718;8.938;2023-02-22T06:29:38;7.20;99.90
26691;DHT22;14307;51.718;8.938;2023-02-22T06:32:05;7.10;99.90
26691;DHT22;14307;51.718;8.938;2023-02-22T06:34:32;7.00;99.90
26691;DHT22;14307;51.718;8.938;2023-02-22T06:36:58;7.10;99.90
26691;DHT22;14307;51.718;8.938;2023-02-22T06:39:28;7.10;99.90
26691;DHT22;14307;51.718;8.938;2023-02-22T06:41:55;7.10;99.90
26691;DHT22;14307;51.718;8.938;2023-02-22T06:44:23;7.00;99.90
26691;DHT22;14307;51.718;8.938;2023-02-22T06:46:50;7.10;99.90
26691;DHT22;14307;51.718;8.938;2023-02-22T06:49:18;7.10;99.90
26691;DHT22;14307;51.718;8.938;2023-02-22T06:51:45;7.10;99.90
26691;DHT22;14307;51.718;8.938;2023-02-22T06:54:13;7.10;99.90
26691;DHT22;14307;51.718;8.938;2023-02-22T06:56:40;7.10;99.90
26691;DHT22;14307;51.718;8.938;2023-02-22T06:59:07;7.10;99.90
26691;DHT22;14307;51.718;8.938;2023-02-22T07:01:34;7.10;99.90
26691;DHT22;14307;51.718;8.938;2023-02-22T07:04:01;7.10;99.90
26691;DHT22;14307;51.718;8.938;2023-02-22T07:06:28;7.20;99.90
26691;DHT22;14307;51.718;8.938;2023-02-22T07:08:54;7.10;99.90
26691;DHT22;14307;51.718;8.938;2023-02-22T07:11:21;7.10;99.90
26691;DHT22;14307;51.718;8.938;2023-02-22T07:13:48;7.20;99.90
26691;DHT22;14307;51.718;8.938;2023-02-22T07:16:15;7.20;99.90
26691;DHT22;14307;51.718;8.938;2023-02-22T07:18:42;7.10;99.90
26691;DHT22;14307;51.718;8.938;2023-02-22T07:21:08;7.10;99.90
26691;DHT22;14307;51.718;8.938;2023-02-22T07:23:37;7.10;99.90
26691;DHT22;14307;51.718;8.938;2023-02-22T07:26:03;7.10;99.90
26691;DHT22;14307;51.718;8.938;2023-02-22T07:28:33;7.10;99.90
26691;DHT22;14307;51.718;8.938;2023-02-22T07:31:00;7.20;99.90
26691;DHT22;14307;51.718;8.938;2023-02-22T07:33:30;7.10;99.90
26691;DHT22;14307;51.718;8.938;2023-02-22T07:35:57;7.10;99.90
26691;DHT22;14307;51.718;8.938;2023-02-22T07:38:23;7.00;99.90
26691;DHT22;14307;51.718;8.938;2023-02-22T07:40:50;7.10;99.90
26691;DHT22;14307;51.718;8.938;2023-02-22T07:43:22;7.10;99.90
26691;DHT22;14307;51.718;8.938;2023-02-22T07:45:53;7.20;99.90
26691;DHT22;14307;51.718;8.938;2023-02-22T07:48:22;7.20;99.90
26691;DHT22;14307;51.718;8.938;2023-02-22T07:50:50;7.20;99.90
26691;DHT22;14307;51.718;8.938;2023-02-22T07:53:19;7.20;99.90
26691;DHT22;14307;51.718;8.938;2023-02-22T07:55:47;7.30;99.90
26691;DHT22;14307;51.718;8.938;2023-02-22T07:58:21;7.30;99.90
26691;DHT22;14307;51.718;8.938;2023-02-22T08:00:48;7.40;99.90
26691;DHT22;14307;51.718;8.938;2023-02-22T08:03:17;7.30;99.90
26691;DHT22;14307;51.718;8.938;2023-02-22T08:05:50;7.40;99.90
26691;DHT22;14307;51.718;8.938;2023-02-22T08:08:17;7.40;99.90
26691;DHT22;14307;51.718;8.938;2023-02-22T08:10:46;7.40;99.90
26691;DHT22;14307;51.718;8.938;2023-02-22T08:13:13;7.40;99.90
26691;DHT22;14307;51.718;8.938;2023-02-22T08:15:40;7.40;99.90
26691;DHT22;14307;51.718;8.938;2023-02-22T08:18:12;7.50;99.90
26691;DHT22;14307;51.718;8.938;2023-02-22T08:20:41;7.50;99.90
26691;DHT22;14307;51.718;8.938;2023-02-22T08:23:10;7.60;99.90
26691;DHT22;14307;51.718;8.938;2023-02-22T08:25:37;7.60;99.90
26691;DHT22;14307;51.718;8.938;2023-02-22T08:28:09;7.70;99.90
26691;DHT22;14307;51.718;8.938;2023-02-22T08:30:37;7.70;99.90
26691;DHT22;14307;51.718;8.938;2023-02-22T08:33:06;7.70;99.90
26691;DHT22;14307;51.718;8.938;2023-02-22T08:35:33;7.80;99.90
26691;DHT22;14307;51.718;8.938;2023-02-22T08:38:03;7.90;99.90
26691;DHT22;14307;51.718;8.938;2023-02-22T08:40:33;7.80;99.90
26691;DHT22;14307;51.718;8.938;2023-02-22T08:43:00;7.80;99.90
26691;DHT22;14307;51.718;8.938;2023-02-22T08:45:27;7.90;99.90
26691;DHT22;14307;51.718;8.938;2023-02-22T08:47:54;7.80;99.90
26691;DHT22;14307;51.718;8.938;2023-02-22T08:50:30;7.70;99.90
26691;DHT22;14307;51.718;8.938;2023-02-22T08:53:00;7.70;99.90
26691;DHT22;14307;51.718;8.938;2023-02-22T08:55:30;7.80;99.90
26691;DHT22;14307;51.718;8.938;2023-02-22T08:57:58;7.80;99.90
26691;DHT22;14307;51.718;8.938;2023-02-22T09:00:27;7.80;99.90
26691;DHT22;14307;51.718;8.938;2023-02-22T09:02:56;7.80;99.90
26691;DHT22;14307;51.718;8.938;2023-02-22T09:05:22;8.00;99.90
26691;DHT22;14307;51.718;8.938;2023-02-22T09:07:49;8.10;99.90
26691;DHT22;14307;51.718;8.938;2023-02-22T09:10:19;8.20;99.90
26691;DHT22;14307;51.718;8.938;2023-02-22T09:12:46;8.30;99.90
26691;DHT22;14307;51.718;8.938;2023-02-22T09:15:14;8.40;99.90
26691;DHT22;14307;51.718;8.938;2023-02-22T09:17:41;8.50;99.90
26691;DHT22;14307;51.718;8.938;2023-02-22T09:20:09;8.40;99.90
26691;DHT22;14307;51.718;8.938;2023-02-22T09:22:38;8.50;99.90
26691;DHT22;14307;51.718;8.938;2023-02-22T09:25:05;8.40;99.90
26691;DHT22;14307;51.718;8.938;2023-02-22T09:27:42;8.70;99.90
26691;DHT22;14307;51.718;8.938;2023-02-22T09:30:33;8.90;99.90
26691;DHT22;14307;51.718;8.938;2023-02-22T09:33:03;9.10;99.90
26691;DHT22;14307;51.718;8.938;2023-02-22T09:35:31;9.30;99.90
26691;DHT22;14307;51.718;8.938;2023-02-22T09:38:03;9.50;99.90
26691;DHT22;14307;51.718;8.938;2023-02-22T09:40:33;9.70;99.90
26691;DHT22;14307;51.718;8.938;2023-02-22T09:43:33;9.90;99.90
26691;DHT22;14307;51.718;8.938;2023-02-22T09:52:17;10.10;99.90
26691;DHT22;14307;51.718;8.938;2023-02-22T09:54:48;10.00;99.90
26691;DHT22;14307;51.718;8.938;2023-02-22T09:57:24;10.30;99.90
26691;DHT22;14307;51.718;8.938;2023-02-22T10:00:05;10.50;99.90
26691;DHT22;14307;51.718;8.938;2023-02-22T10:05:36;10.50;99.90
26691;DHT22;14307;51.718;8.938;2023-02-22T10:08:12;10.10;99.90
26691;DHT22;14307;51.718;8.938;2023-02-22T10:10:45;10.10;99.90
26691;DHT22;14307;51.718;8.938;2023-02-22T10:13:20;10.20;99.90
26691;DHT22;14307;51.718;8.938;2023-02-22T10:26:56;10.50;99.90
26691;DHT22;14307;51.718;8.938;2023-02-22T10:31:56;10.40;99.90
26691;DHT22;14307;51.718;8.938;2023-02-22T10:34:26;10.30;99.90
26691;DHT22;14307;51.718;8.938;2023-02-22T10:37:03;10.10;99.90
26691;DHT22;14307;51.718;8.938;2023-02-22T10:39:35;9.90;99.90
26691;DHT22;14307;51.718;8.938;2023-02-22T10:42:05;9.80;99.90
26691;DHT22;14307;51.718;8.938;2023-02-22T10:44:37;9.70;99.90
26691;DHT22;14307;51.718;8.938;2023-02-22T10:47:08;9.60;99.90
26691;DHT22;14307;51.718;8.938;2023-02-22T10:49:43;9.60;99.90
26691;DHT22;14307;51.718;8.938;2023-02-22T10:52:26;9.60;99.90
26691;DHT22;14307;51.718;8.938;2023-02-22T10:54:57;9.60;99.90
26691;DHT22;14307;51.718;8.938;2023-02-22T10:57:41;9.70;99.90
26691;DHT22;14307;51.718;8.938;2023-02-22T11:00:21;9.70;99.90
26691;DHT22;14307;51.718;8.938;2023-02-22T11:03:00;9.80;99.90
26691;DHT22;14307;51.718;8.938;2023-02-22T11:05:34;9.90;99.90
26691;DHT22;14307;51.718;8.938;2023-02-22T11:10:48;10.30;99.90
26691;DHT22;14307;51.718;8.938;2023-02-22T11:13:23;10.20;99.90
26691;DHT22;14307;51.718;8.938;2023-02-22T11:15:57;9.90;99.90
26691;DHT22;14307;51.718;8.938;2023-02-22T11:18:32;9.90;99.90
26691;DHT22;14307;51.718;8.938;2023-02-22T11:21:07;10.00;99.90
26691;DHT22;14307;51.718;8.938;2023-02-22T11:23:38;9.80;99.90
26691;DHT22;14307;51.718;8.938;2023-02-22T11:26:12;9.70;99.90
26691;DHT22;14307;51.718;8.938;2023-02-22T11:28:43;9.90;99.90
26691;DHT22;14307;51.718;8.938;2023-02-22T11:31:24;9.90;99.90
26691;DHT22;14307;51.718;8.938;2023-02-22T11:33:59;10.10;99.90
26691;DHT22;14307;51.718;8.938;2023-02-22T11:38:58;10.20;99.90
26691;DHT22;14307;51.718;8.938;2023-02-22T11:41:29;10.20;99.90
26691;DHT22;14307;51.718;8.938;2023-02-22T11:44:13;10.30;99.90
26691;DHT22;14307;51.718;8.938;2023-02-22T11:46:41;10.60;99.90
26691;DHT22;14307;51.718;8.938;2023-02-22T11:49:10;10.60;99.90
26691;DHT22;14307;51.718;8.938;2023-02-22T12:00:21;11.80;99.90
26691;DHT22;14307;51.718;8.938;2023-02-22T12:08:43;11.80;99.90
26691;DHT22;14307;51.718;8.938;2023-02-22T12:11:34;11.80;99.90
26691;DHT22;14307;51.718;8.938;2023-02-22T12:14:43;11.80;99.90
26691;DHT22;14307;51.718;8.938;2023-02-22T12:17:17;11.70;99.90
26691;DHT22;14307;51.718;8.938;2023-02-22T12:19:50;11.80;99.90
26691;DHT22;14307;51.718;8.938;2023-02-22T12:22:37;11.50;99.90
26691;DHT22;14307;51.718;8.938;2023-02-22T12:25:17;11.60;99.90
26691;DHT22;14307;51.718;8.938;2023-02-22T12:28:10;11.60;99.90
26691;DHT22;14307;51.718;8.938;2023-02-22T12:31:20;11.60;99.90
26691;DHT22;14307;51.718;8.938;2023-02-22T12:34:02;11.80;99.90
26691;DHT22;14307;51.718;8.938;2023-02-22T12:36:50;12.00;99.90
26691;DHT22;14307;51.718;8.938;2023-02-22T12:45:13;12.40;99.90
26691;DHT22;14307;51.718;8.938;2023-02-22T12:47:51;12.60;99.90
26691;DHT22;14307;51.718;8.938;2023-02-22T12:50:25;12.60;99.90
26691;DHT22;14307;51.718;8.938;2023-02-22T12:53:01;12.50;99.90
26691;DHT22;14307;51.718;8.938;2023-02-22T12:55:31;12.40;99.90
26691;DHT22;14307;51.718;8.938;2023-02-22T13:01:15;12.10;99.90
26691;DHT22;14307;51.718;8.938;2023-02-22T13:03:46;12.10;99.90
26691;DHT22;14307;51.718;8.938;2023-02-22T13:06:16;12.10;99.90
26691;DHT22;14307;51.718;8.938;2023-02-22T13:11:32;12.10;99.90
26691;DHT22;14307;51.718;8.938;2023-02-22T13:14:29;12.10;99.90
26691;DHT22;14307;51.718;8.938;2023-02-22T13:17:20;12.20;99.90
26691;DHT22;14307;51.718;8.938;2023-02-22T13:22:38;12.30;99.90
26691;DHT22;14307;51.718;8.938;2023-02-22T13:25:14;12.50;99.90
26691;DHT22;14307;51.718;8.938;2023-02-22T13:27:54;12.60;99.90
26691;DHT22;14307;51.718;8.938;2023-02-22T13:30:39;12.50;99.90
26691;DHT22;14307;51.718;8.938;2023-02-22T13:36:36;12.60;99.90
26691;DHT22;14307;51.718;8.938;2023-02-22T13:42:23;12.70;99.90
26691;DHT22;14307;51.718;8.938;2023-02-22T13:45:08;12.60;99.90
26691;DHT22;14307;51.718;8.938;2023-02-22T13:47:57;12.60;99.90
26691;DHT22;14307;51.718;8.938;2023-02-22T13:52:57;12.70;99.90
26691;DHT22;14307;51.718;8.938;2023-02-22T13:55:30;12.60;99.90
26691;DHT22;14307;51.718;8.938;2023-02-22T13:58:03;12.60;99.90
26691;DHT22;14307;51.718;8.938;2023-02-22T14:00:48;12.80;99.90
26691;DHT22;14307;51.718;8.938;2023-02-22T14:05:52;12.80;99.90
26691;DHT22;14307;51.718;8.938;2023-02-22T14:10:50;12.80;99.90
26691;DHT22;14307;51.718;8.938;2023-02-22T14:13:27;12.80;99.90
26691;DHT22;14307;51.718;8.938;2023-02-22T14:18:42;12.80;99.90
26691;DHT22;14307;51.718;8.938;2023-02-22T14:23:41;13.20;99.90
26691;DHT22;14307;51.718;8.938;2023-02-22T14:26:33;13.30;99.90
26691;DHT22;14307;51.718;8.938;2023-02-22T14:31:57;13.40;99.90
26691;DHT22;14307;51.718;8.938;2023-02-22T14:34:30;13.30;99.90
26691;DHT22;14307;51.718;8.938;2023-02-22T14:37:17;13.30;99.90
26691;DHT22;14307;51.718;8.938;2023-02-22T14:40:01;13.10;99.90
26691;DHT22;14307;51.718;8.938;2023-02-22T14:42:42;13.10;99.90
26691;DHT22;14307;51.718;8.938;2023-02-22T14:45:22;13.00;99.90
26691;DHT22;14307;51.718;8.938;2023-02-22T14:47:58;12.90;99.90
26691;DHT22;14307;51.718;8.938;2023-02-22T14:58:14;12.70;99.90
26691;DHT22;14307;51.718;8.938;2023-02-22T15:00:46;12.70;99.90
26691;DHT22;14307;51.718;8.938;2023-02-22T15:03:33;12.70;99.90
26691;DHT22;14307;51.718;8.938;2023-02-22T15:06:15;12.60;99.90
26691;DHT22;14307;51.718;8.938;2023-02-22T15:08:44;12.60;99.90
26691;DHT22;14307;51.718;8.938;2023-02-22T15:11:21;12.60;99.90
26691;DHT22;14307;51.718;8.938;2023-02-22T15:13:53;12.60;99.90
26691;DHT22;14307;51.718;8.938;2023-02-22T15:16:21;12.60;99.90
26691;DHT22;14307;51.718;8.938;2023-02-22T15:18:54;12.70;99.90
26691;DHT22;14307;51.718;8.938;2023-02-22T15:21:26;12.70;99.90
26691;DHT22;14307;51.718;8.938;2023-02-22T15:23:56;12.60;99.90
26691;DHT22;14307;51.718;8.938;2023-02-22T15:26:42;12.60;99.90
26691;DHT22;14307;51.718;8.938;2023-02-22T15:29:38;12.60;99.90
26691;DHT22;14307;51.718;8.938;2023-02-22T15:32:19;12.40;99.90
26691;DHT22;14307;51.718;8.938;2023-02-22T15:34:46;12.40;99.90
26691;DHT22;14307;51.718;8.938;2023-02-22T15:37:24;12.30;99.90
26691;DHT22;14307;51.718;8.938;2023-02-22T15:40:08;12.20;99.90
26691;DHT22;14307;51.718;8.938;2023-02-22T15:42:50;12.20;99.90
26691;DHT22;14307;51.718;8.938;2023-02-22T15:45:24;12.10;99.90
26691;DHT22;14307;51.718;8.938;2023-02-22T15:47:52;12.10;99.90
26691;DHT22;14307;51.718;8.938;2023-02-22T15:50:30;12.10;99.90
26691;DHT22;14307;51.718;8.938;2023-02-22T15:55:40;12.00;99.90
26691;DHT22;14307;51.718;8.938;2023-02-22T15:58:29;11.90;99.90
26691;DHT22;14307;51.718;8.938;2023-02-22T16:01:11;11.90;99.90
26691;DHT22;14307;51.718;8.938;2023-02-22T16:04:00;11.90;99.90
26691;DHT22;14307;51.718;8.938;2023-02-22T16:06:38;11.90;99.90
26691;DHT22;14307;51.718;8.938;2023-02-22T16:11:44;11.80;99.90
26691;DHT22;14307;51.718;8.938;2023-02-22T16:19:40;11.50;99.90
26691;DHT22;14307;51.718;8.938;2023-02-22T16:22:29;11.50;99.90
26691;DHT22;14307;51.718;8.938;2023-02-22T16:27:48;11.20;99.90
26691;DHT22;14307;51.718;8.938;2023-02-22T16:30:25;11.20;99.90
26691;DHT22;14307;51.718;8.938;2023-02-22T16:32:55;11.10;99.90
26691;DHT22;14307;51.718;8.938;2023-02-22T16:35:26;11.00;99.90
26691;DHT22;14307;51.718;8.938;2023-02-22T16:38:01;10.90;99.90
26691;DHT22;14307;51.718;8.938;2023-02-22T16:40:33;10.80;99.90
26691;DHT22;14307;51.718;8.938;2023-02-22T16:43:06;10.80;99.90
26691;DHT22;14307;51.718;8.938;2023-02-22T16:45:33;10.70;99.90
26691;DHT22;14307;51.718;8.938;2023-02-22T16:48:14;10.70;99.90
26691;DHT22;14307;51.718;8.938;2023-02-22T16:50:41;10.70;99.90
26691;DHT22;14307;51.718;8.938;2023-02-22T16:53:08;10.60;99.90
26691;DHT22;14307;51.718;8.938;2023-02-22T16:55:35;10.60;99.90
26691;DHT22;14307;51.718;8.938;2023-02-22T16:58:03;10.50;99.90
26691;DHT22;14307;51.718;8.938;2023-02-22T17:00:29;10.50;99.90
26691;DHT22;14307;51.718;8.938;2023-02-22T17:03:02;10.40;99.90
26691;DHT22;14307;51.718;8.938;2023-02-22T17:05:31;10.40;99.90
26691;DHT22;14307;51.718;8.938;2023-02-22T17:08:04;10.30;99.90
26691;DHT22;14307;51.718;8.938;2023-02-22T17:10:32;10.30;99.90
26691;DHT22;14307;51.718;8.938;2023-02-22T17:13:00;10.20;99.90
26691;DHT22;14307;51.718;8.938;2023-02-22T17:15:45;10.20;99.90
26691;DHT22;14307;51.718;8.938;2023-02-22T17:18:14;10.30;99.90
26691;DHT22;14307;51.718;8.938;2023-02-22T17:20:42;10.30;99.90
26691;DHT22;14307;51.718;8.938;2023-02-22T17:23:10;10.20;99.90
26691;DHT22;14307;51.718;8.938;2023-02-22T17:25:55;10.10;99.90
26691;DHT22;14307;51.718;8.938;2023-02-22T17:28:25;10.20;99.90
26691;DHT22;14307;51.718;8.938;2023-02-22T17:30:53;10.00;99.90
26691;DHT22;14307;51.718;8.938;2023-02-22T17:33:22;9.90;99.90
26691;DHT22;14307;51.718;8.938;2023-02-22T17:35:54;9.90;99.90
26691;DHT22;14307;51.718;8.938;2023-02-22T17:38:21;9.80;99.90
26691;DHT22;14307;51.718;8.938;2023-02-22T17:40:48;9.70;99.90
26691;DHT22;14307;51.718;8.938;2023-02-22T17:43:18;9.60;99.90
26691;DHT22;14307;51.718;8.938;2023-02-22T17:45:47;9.60;99.90
26691;DHT22;14307;51.718;8.938;2023-02-22T17:48:15;9.60;99.90
26691;DHT22;14307;51.718;8.938;2023-02-22T17:50:44;9.60;99.90
26691;DHT22;14307;51.718;8.938;2023-02-22T17:53:12;9.50;99.90
26691;DHT22;14307;51.718;8.938;2023-02-22T17:55:40;9.50;99.90
26691;DHT22;14307;51.718;8.938;2023-02-22T17:58:08;9.50;99.90
26691;DHT22;14307;51.718;8.938;2023-02-22T18:00:44;9.40;99.90
26691;DHT22;14307;51.718;8.938;2023-02-22T18:03:14;9.40;99.90
26691;DHT22;14307;51.718;8.938;2023-02-22T18:05:46;9.40;99.90
26691;DHT22;14307;51.718;8.938;2023-02-22T18:08:14;9.30;99.90
26691;DHT22;14307;51.718;8.938;2023-02-22T18:10:41;9.40;99.90
26691;DHT22;14307;51.718;8.938;2023-02-22T18:13:09;9.30;99.90
26691;DHT22;14307;51.718;8.938;2023-02-22T18:15:38;9.30;99.90
26691;DHT22;14307;51.718;8.938;2023-02-22T18:18:05;9.30;99.90
26691;DHT22;14307;51.718;8.938;2023-02-22T18:20:32;9.30;99.90
26691;DHT22;14307;51.718;8.938;2023-02-22T18:23:06;9.10;99.90
26691;DHT22;14307;51.718;8.938;2023-02-22T18:25:34;9.20;99.90